sensor_id;sensor_type;location;lat;lon;timestamp;P1;durP1;ratioP1;P2;durP2;ratioP2
15616;SDS011;7908;51.688;7.130;2023-02-18T00:02:01;87.40;;;54.17;;
15616;SDS011;7908;51.688;7.130;2023-02-18T00:04:30;92.50;;;54.93;;
15616;SDS011;7908;51.688;7.130;2023-02-18T00:06:59;97.13;;;55.43;;
15616;SDS011;7908;51.688;7.130;2023-02-18T00:09:28;89.10;;;51.07;;
15616;SDS011;7908;51.688;7.130;2023-02-18T00:11:59;83.00;;;50.00;;
15616;SDS011;7908;51.688;7.130;2023-02-18T00:14:29;82.07;;;52.70;;
15616;SDS011;7908;51.688;7.130;2023-02-18T00:16:57;79.17;;;49.70;;
15616;SDS011;7908;51.688;7.130;2023-02-18T00:19:27;82.90;;;49.30;;
15616;SDS011;7908;51.688;7.130;2023-02-18T00:21:55;72.77;;;45.43;;
15616;SDS011;7908;51.688;7.130;2023-02-18T00:24:25;93.57;;;51.30;;
15616;SDS011;7908;51.688;7.130;2023-02-18T00:26:53;91.57;;;51.07;;
15616;SDS011;7908;51.688;7.130;2023-02-18T00:29:24;77.30;;;48.27;;
15616;SDS011;7908;51.688;7.130;2023-02-18T00:31:53;83.40;;;48.97;;
15616;SDS011;7908;51.688;7.130;2023-02-18T00:34:21;76.07;;;45.87;;
15616;SDS011;7908;51.688;7.130;2023-02-18T00:36:50;79.23;;;47.00;;
15616;SDS011;7908;51.688;7.130;2023-02-18T00:39:18;86.43;;;46.13;;
15616;SDS011;7908;51.688;7.130;2023-02-18T00:41:47;69.53;;;43.87;;
15616;SDS011;7908;51.688;7.130;2023-02-18T00:44:16;66.03;;;44.00;;
15616;SDS011;7908;51.688;7.130;2023-02-18T00:46:46;83.70;;;44.93;;
15616;SDS011;7908;51.688;7.130;2023-02-18T00:49:15;79.73;;;45.63;;
15616;SDS011;7908;51.688;7.130;2023-02-18T00:51:44;76.80;;;44.27;;
15616;SDS011;7908;51.688;7.130;2023-02-18T00:54:12;80.77;;;45.47;;
15616;SDS011;7908;51.688;7.130;2023-02-18T00:56:41;80.87;;;46.03;;
15616;SDS011;7908;51.688;7.130;2023-02-18T00:59:10;90.33;;;47.47;;
15616;SDS011;7908;51.688;7.130;2023-02-18T01:01:38;87.73;;;47.93;;
15616;SDS011;7908;51.688;7.130;2023-02-18T01:04:08;77.87;;;46.93;;
15616;SDS011;7908;51.688;7.130;2023-02-18T01:06:37;94.50;;;49.87;;
15616;SDS011;7908;51.688;7.130;2023-02-18T01:09:06;88.40;;;51.63;;
15616;SDS011;7908;51.688;7.130;2023-02-18T01:11:35;86.67;;;50.03;;
15616;SDS011;7908;51.688;7.130;2023-02-18T01:14:04;91.73;;;50.47;;
15616;SDS011;7908;51.688;7.130;2023-02-18T01:16:33;101.97;;;52.47;;
15616;SDS011;7908;51.688;7.130;2023-02-18T01:19:02;104.73;;;54.80;;
15616;SDS011;7908;51.688;7.130;2023-02-18T01:21:32;98.97;;;53.20;;
15616;SDS011;7908;51.688;7.130;2023-02-18T01:24:00;113.73;;;55.07;;
15616;SDS011;7908;51.688;7.130;2023-02-18T01:26:29;106.73;;;53.73;;
15616;SDS011;7908;51.688;7.130;2023-02-18T01:28:58;99.23;;;53.07;;
15616;SDS011;7908;51.688;7.130;2023-02-18T01:31:27;112.13;;;52.67;;
15616;SDS011;7908;51.688;7.130;2023-02-18T01:33:56;105.83;;;51.37;;
15616;SDS011;7908;51.688;7.130;2023-02-18T01:36:25;98.80;;;50.73;;
15616;SDS011;7908;51.688;7.130;2023-02-18T01:38:54;94.60;;;49.70;;
15616;SDS011;7908;51.688;7.130;2023-02-18T01:41:24;95.70;;;50.57;;
15616;SDS011;7908;51.688;7.130;2023-02-18T01:46:40;95.97;;;49.40;;
15616;SDS011;7908;51.688;7.130;2023-02-18T01:49:09;104.30;;;50.00;;
15616;SDS011;7908;51.688;7.130;2023-02-18T01:51:40;93.17;;;49.43;;
15616;SDS011;7908;51.688;7.130;2023-02-18T01:54:13;96.87;;;49.53;;
15616;SDS011;7908;51.688;7.130;2023-02-18T01:56:47;97.20;;;48.00;;
15616;SDS011;7908;51.688;7.130;2023-02-18T01:59:20;103.37;;;50.80;;
15616;SDS011;7908;51.688;7.130;2023-02-18T02:01:52;103.93;;;50.97;;
15616;SDS011;7908;51.688;7.130;2023-02-18T02:04:22;99.47;;;49.87;;
15616;SDS011;7908;51.688;7.130;2023-02-18T02:06:51;105.83;;;49.23;;
15616;SDS011;7908;51.688;7.130;2023-02-18T02:09:21;92.73;;;48.10;;
15616;SDS011;7908;51.688;7.130;2023-02-18T02:15:07;97.67;;;49.97;;
15616;SDS011;7908;51.688;7.130;2023-02-18T02:17:53;101.10;;;47.33;;
15616;SDS011;7908;51.688;7.130;2023-02-18T02:23:45;87.50;;;46.57;;
15616;SDS011;7908;51.688;7.130;2023-02-18T02:29:54;96.03;;;47.77;;
15616;SDS011;7908;51.688;7.130;2023-02-18T02:32:59;91.67;;;47.13;;
15616;SDS011;7908;51.688;7.130;2023-02-18T02:35:52;106.77;;;48.37;;
15616;SDS011;7908;51.688;7.130;2023-02-18T02:38:28;94.73;;;47.30;;
15616;SDS011;7908;51.688;7.130;2023-02-18T02:41:03;107.70;;;48.33;;
15616;SDS011;7908;51.688;7.130;2023-02-18T02:43:42;104.03;;;48.30;;
15616;SDS011;7908;51.688;7.130;2023-02-18T02:46:20;94.90;;;46.20;;
15616;SDS011;7908;51.688;7.130;2023-02-18T02:48:57;97.83;;;44.87;;
15616;SDS011;7908;51.688;7.130;2023-02-18T02:51:37;89.60;;;44.87;;
15616;SDS011;7908;51.688;7.130;2023-02-18T02:54:12;97.43;;;45.27;;
15616;SDS011;7908;51.688;7.130;2023-02-18T02:56:42;88.33;;;42.90;;
15616;SDS011;7908;51.688;7.130;2023-02-18T02:59:11;84.10;;;42.37;;
15616;SDS011;7908;51.688;7.130;2023-02-18T03:01:46;82.97;;;42.50;;
15616;SDS011;7908;51.688;7.130;2023-02-18T03:04:36;83.97;;;41.33;;
15616;SDS011;7908;51.688;7.130;2023-02-18T03:10:29;66.83;;;36.67;;
15616;SDS011;7908;51.688;7.130;2023-02-18T03:13:09;69.13;;;36.97;;
15616;SDS011;7908;51.688;7.130;2023-02-18T03:15:47;79.10;;;38.30;;
15616;SDS011;7908;51.688;7.130;2023-02-18T03:18:22;63.20;;;34.53;;
15616;SDS011;7908;51.688;7.130;2023-02-18T03:20:59;59.80;;;34.73;;
15616;SDS011;7908;51.688;7.130;2023-02-18T03:23:36;55.77;;;31.83;;
15616;SDS011;7908;51.688;7.130;2023-02-18T03:26:08;58.80;;;32.47;;
15616;SDS011;7908;51.688;7.130;2023-02-18T03:28:39;52.03;;;30.07;;
15616;SDS011;7908;51.688;7.130;2023-02-18T03:31:09;52.70;;;30.57;;
15616;SDS011;7908;51.688;7.130;2023-02-18T03:33:42;51.77;;;28.23;;
15616;SDS011;7908;51.688;7.130;2023-02-18T03:36:13;47.83;;;27.10;;
15616;SDS011;7908;51.688;7.130;2023-02-18T03:38:44;44.73;;;26.03;;
15616;SDS011;7908;51.688;7.130;2023-02-18T03:41:17;45.57;;;25.60;;
15616;SDS011;7908;51.688;7.130;2023-02-18T03:43:49;42.63;;;24.23;;
15616;SDS011;7908;51.688;7.130;2023-02-18T03:46:18;39.90;;;24.13;;
15616;SDS011;7908;51.688;7.130;2023-02-18T03:48:47;39.60;;;23.40;;
15616;SDS011;7908;51.688;7.130;2023-02-18T03:51:15;41.57;;;23.23;;
15616;SDS011;7908;51.688;7.130;2023-02-18T03:53:46;40.57;;;22.80;;
15616;SDS011;7908;51.688;7.130;2023-02-18T03:56:15;37.93;;;22.20;;
15616;SDS011;7908;51.688;7.130;2023-02-18T03:58:44;41.07;;;22.47;;
15616;SDS011;7908;51.688;7.130;2023-02-18T04:01:12;43.83;;;23.20;;
15616;SDS011;7908;51.688;7.130;2023-02-18T04:03:41;49.03;;;25.47;;
15616;SDS011;7908;51.688;7.130;2023-02-18T04:06:10;47.30;;;26.07;;
15616;SDS011;7908;51.688;7.130;2023-02-18T04:08:39;55.90;;;29.30;;
15616;SDS011;7908;51.688;7.130;2023-02-18T04:11:09;66.37;;;32.37;;
15616;SDS011;7908;51.688;7.130;2023-02-18T04:13:37;65.57;;;33.73;;
15616;SDS011;7908;51.688;7.130;2023-02-18T04:16:06;56.73;;;32.47;;
15616;SDS011;7908;51.688;7.130;2023-02-18T04:18:35;64.57;;;33.87;;
15616;SDS011;7908;51.688;7.130;2023-02-18T04:21:04;68.43;;;34.50;;
15616;SDS011;7908;51.688;7.130;2023-02-18T04:23:32;65.10;;;33.10;;
15616;SDS011;7908;51.688;7.130;2023-02-18T04:26:01;63.20;;;31.90;;
15616;SDS011;7908;51.688;7.130;2023-02-18T04:28:32;65.53;;;33.30;;
15616;SDS011;7908;51.688;7.130;2023-02-18T04:31:00;68.53;;;34.97;;
15616;SDS011;7908;51.688;7.130;2023-02-18T04:33:30;75.17;;;36.30;;
15616;SDS011;7908;51.688;7.130;2023-02-18T04:35:59;83.87;;;38.00;;
15616;SDS011;7908;51.688;7.130;2023-02-18T04:38:29;95.30;;;41.17;;
15616;SDS011;7908;51.688;7.130;2023-02-18T04:40:57;93.23;;;41.10;;
15616;SDS011;7908;51.688;7.130;2023-02-18T04:43:26;99.33;;;42.53;;
15616;SDS011;7908;51.688;7.130;2023-02-18T04:45:56;99.83;;;43.77;;
15616;SDS011;7908;51.688;7.130;2023-02-18T04:48:25;110.87;;;46.40;;
15616;SDS011;7908;51.688;7.130;2023-02-18T04:50:53;120.27;;;48.33;;
15616;SDS011;7908;51.688;7.130;2023-02-18T04:53:22;125.00;;;49.10;;
15616;SDS011;7908;51.688;7.130;2023-02-18T04:55:51;121.13;;;48.87;;
15616;SDS011;7908;51.688;7.130;2023-02-18T04:58:20;99.57;;;45.37;;
15616;SDS011;7908;51.688;7.130;2023-02-18T05:00:48;106.87;;;47.93;;
15616;SDS011;7908;51.688;7.130;2023-02-18T05:03:20;112.87;;;48.77;;
15616;SDS011;7908;51.688;7.130;2023-02-18T05:05:48;105.07;;;46.87;;
15616;SDS011;7908;51.688;7.130;2023-02-18T05:08:17;96.97;;;47.83;;
15616;SDS011;7908;51.688;7.130;2023-02-18T05:10:46;97.90;;;50.77;;
15616;SDS011;7908;51.688;7.130;2023-02-18T05:13:15;84.63;;;47.73;;
15616;SDS011;7908;51.688;7.130;2023-02-18T05:15:44;77.47;;;46.93;;
15616;SDS011;7908;51.688;7.130;2023-02-18T05:18:12;80.60;;;45.03;;
15616;SDS011;7908;51.688;7.130;2023-02-18T05:20:42;61.20;;;40.73;;
15616;SDS011;7908;51.688;7.130;2023-02-18T05:23:11;57.20;;;41.23;;
15616;SDS011;7908;51.688;7.130;2023-02-18T05:25:40;53.73;;;38.43;;
15616;SDS011;7908;51.688;7.130;2023-02-18T05:28:12;47.37;;;35.10;;
15616;SDS011;7908;51.688;7.130;2023-02-18T05:30:41;39.90;;;31.33;;
15616;SDS011;7908;51.688;7.130;2023-02-18T05:33:10;41.13;;;31.03;;
15616;SDS011;7908;51.688;7.130;2023-02-18T05:35:39;39.47;;;29.27;;
15616;SDS011;7908;51.688;7.130;2023-02-18T05:38:09;27.43;;;22.30;;
15616;SDS011;7908;51.688;7.130;2023-02-18T05:40:37;33.43;;;24.37;;
15616;SDS011;7908;51.688;7.130;2023-02-18T05:43:06;28.87;;;22.40;;
15616;SDS011;7908;51.688;7.130;2023-02-18T05:45:35;27.33;;;21.80;;
15616;SDS011;7908;51.688;7.130;2023-02-18T05:48:04;25.47;;;21.07;;
15616;SDS011;7908;51.688;7.130;2023-02-18T05:50:32;26.67;;;21.70;;
15616;SDS011;7908;51.688;7.130;2023-02-18T05:53:01;24.17;;;20.30;;
15616;SDS011;7908;51.688;7.130;2023-02-18T05:55:31;29.93;;;22.80;;
15616;SDS011;7908;51.688;7.130;2023-02-18T05:58:04;28.43;;;21.37;;
15616;SDS011;7908;51.688;7.130;2023-02-18T06:00:33;29.53;;;21.93;;
15616;SDS011;7908;51.688;7.130;2023-02-18T06:03:02;26.93;;;21.80;;
15616;SDS011;7908;51.688;7.130;2023-02-18T06:05:31;26.27;;;20.60;;
15616;SDS011;7908;51.688;7.130;2023-02-18T06:07:59;25.33;;;19.87;;
15616;SDS011;7908;51.688;7.130;2023-02-18T06:10:28;23.63;;;19.33;;
15616;SDS011;7908;51.688;7.130;2023-02-18T06:12:58;19.70;;;17.00;;
15616;SDS011;7908;51.688;7.130;2023-02-18T06:15:28;19.27;;;15.83;;
15616;SDS011;7908;51.688;7.130;2023-02-18T06:17:56;17.20;;;13.77;;
15616;SDS011;7908;51.688;7.130;2023-02-18T06:20:25;10.37;;;8.63;;
15616;SDS011;7908;51.688;7.130;2023-02-18T06:22:53;8.70;;;7.27;;
15616;SDS011;7908;51.688;7.130;2023-02-18T06:25:22;8.30;;;6.53;;
15616;SDS011;7908;51.688;7.130;2023-02-18T06:27:51;9.87;;;7.10;;
15616;SDS011;7908;51.688;7.130;2023-02-18T06:30:21;7.27;;;5.90;;
15616;SDS011;7908;51.688;7.130;2023-02-18T06:32:50;8.23;;;5.33;;
15616;SDS011;7908;51.688;7.130;2023-02-18T06:35:18;8.23;;;5.10;;
15616;SDS011;7908;51.688;7.130;2023-02-18T06:37:47;6.47;;;4.70;;
15616;SDS011;7908;51.688;7.130;2023-02-18T06:40:16;5.97;;;4.30;;
15616;SDS011;7908;51.688;7.130;2023-02-18T06:42:45;6.73;;;4.60;;
15616;SDS011;7908;51.688;7.130;2023-02-18T06:45:13;6.60;;;4.63;;
15616;SDS011;7908;51.688;7.130;2023-02-18T06:47:43;4.80;;;3.67;;
15616;SDS011;7908;51.688;7.130;2023-02-18T06:50:12;5.80;;;4.27;;
15616;SDS011;7908;51.688;7.130;2023-02-18T06:52:41;4.97;;;3.90;;
15616;SDS011;7908;51.688;7.130;2023-02-18T06:55:10;5.20;;;3.67;;
15616;SDS011;7908;51.688;7.130;2023-02-18T06:57:39;4.50;;;3.37;;
15616;SDS011;7908;51.688;7.130;2023-02-18T07:00:08;4.30;;;3.47;;
15616;SDS011;7908;51.688;7.130;2023-02-18T07:02:37;5.47;;;3.63;;
15616;SDS011;7908;51.688;7.130;2023-02-18T07:05:07;5.40;;;3.77;;
15616;SDS011;7908;51.688;7.130;2023-02-18T07:07:36;5.20;;;3.77;;
15616;SDS011;7908;51.688;7.130;2023-02-18T07:10:06;4.80;;;3.60;;
15616;SDS011;7908;51.688;7.130;2023-02-18T07:12:35;4.10;;;3.23;;
15616;SDS011;7908;51.688;7.130;2023-02-18T07:15:04;4.67;;;3.47;;
15616;SDS011;7908;51.688;7.130;2023-02-18T07:17:33;5.93;;;3.90;;
15616;SDS011;7908;51.688;7.130;2023-02-18T07:20:02;5.10;;;3.90;;
15616;SDS011;7908;51.688;7.130;2023-02-18T07:22:33;5.07;;;3.60;;
15616;SDS011;7908;51.688;7.130;2023-02-18T07:25:02;5.37;;;3.60;;
15616;SDS011;7908;51.688;7.130;2023-02-18T07:27:31;4.10;;;3.30;;
15616;SDS011;7908;51.688;7.130;2023-02-18T07:30:01;4.37;;;3.10;;
15616;SDS011;7908;51.688;7.130;2023-02-18T07:32:30;4.67;;;3.20;;
15616;SDS011;7908;51.688;7.130;2023-02-18T07:34:58;4.33;;;3.30;;
15616;SDS011;7908;51.688;7.130;2023-02-18T07:37:27;4.83;;;3.20;;
15616;SDS011;7908;51.688;7.130;2023-02-18T07:39:57;5.47;;;3.07;;
15616;SDS011;7908;51.688;7.130;2023-02-18T07:42:26;3.70;;;3.20;;
15616;SDS011;7908;51.688;7.130;2023-02-18T07:44:55;4.00;;;3.60;;
15616;SDS011;7908;51.688;7.130;2023-02-18T07:47:24;3.47;;;3.17;;
15616;SDS011;7908;51.688;7.130;2023-02-18T07:49:52;4.30;;;3.50;;
15616;SDS011;7908;51.688;7.130;2023-02-18T07:52:21;4.37;;;3.23;;
15616;SDS011;7908;51.688;7.130;2023-02-18T07:54:50;4.10;;;3.30;;
15616;SDS011;7908;51.688;7.130;2023-02-18T07:57:22;5.27;;;3.50;;
15616;SDS011;7908;51.688;7.130;2023-02-18T07:59:51;5.23;;;3.60;;
15616;SDS011;7908;51.688;7.130;2023-02-18T08:02:20;3.87;;;3.43;;
15616;SDS011;7908;51.688;7.130;2023-02-18T08:04:50;4.17;;;3.47;;
15616;SDS011;7908;51.688;7.130;2023-02-18T08:07:19;6.00;;;3.77;;
15616;SDS011;7908;51.688;7.130;2023-02-18T08:09:49;5.10;;;3.83;;
15616;SDS011;7908;51.688;7.130;2023-02-18T08:12:18;5.13;;;4.10;;
15616;SDS011;7908;51.688;7.130;2023-02-18T08:14:48;7.10;;;4.50;;
15616;SDS011;7908;51.688;7.130;2023-02-18T08:17:17;4.93;;;4.47;;
15616;SDS011;7908;51.688;7.130;2023-02-18T08:19:45;5.57;;;4.50;;
15616;SDS011;7908;51.688;7.130;2023-02-18T08:22:14;5.27;;;4.30;;
15616;SDS011;7908;51.688;7.130;2023-02-18T08:24:43;5.60;;;5.10;;
15616;SDS011;7908;51.688;7.130;2023-02-18T08:27:12;7.07;;;5.03;;
15616;SDS011;7908;51.688;7.130;2023-02-18T08:29:41;6.27;;;5.40;;
15616;SDS011;7908;51.688;7.130;2023-02-18T08:32:11;7.20;;;5.37;;
15616;SDS011;7908;51.688;7.130;2023-02-18T08:34:40;5.40;;;4.90;;
15616;SDS011;7908;51.688;7.130;2023-02-18T08:37:09;6.30;;;4.80;;
15616;SDS011;7908;51.688;7.130;2023-02-18T08:39:38;4.50;;;4.10;;
15616;SDS011;7908;51.688;7.130;2023-02-18T08:42:07;4.80;;;4.30;;
15616;SDS011;7908;51.688;7.130;2023-02-18T08:44:38;4.90;;;3.80;;
15616;SDS011;7908;51.688;7.130;2023-02-18T08:47:07;4.47;;;3.70;;
15616;SDS011;7908;51.688;7.130;2023-02-18T08:49:57;6.20;;;4.03;;
15616;SDS011;7908;51.688;7.130;2023-02-18T08:52:26;7.03;;;4.50;;
15616;SDS011;7908;51.688;7.130;2023-02-18T08:54:55;10.57;;;4.50;;
15616;SDS011;7908;51.688;7.130;2023-02-18T08:57:24;5.90;;;4.50;;
15616;SDS011;7908;51.688;7.130;2023-02-18T08:59:55;8.93;;;4.70;;
15616;SDS011;7908;51.688;7.130;2023-02-18T09:02:24;8.63;;;4.87;;
15616;SDS011;7908;51.688;7.130;2023-02-18T09:04:56;8.87;;;5.20;;
15616;SDS011;7908;51.688;7.130;2023-02-18T09:07:26;6.70;;;4.53;;
15616;SDS011;7908;51.688;7.130;2023-02-18T09:09:55;5.30;;;4.53;;
15616;SDS011;7908;51.688;7.130;2023-02-18T09:12:24;6.77;;;4.70;;
15616;SDS011;7908;51.688;7.130;2023-02-18T09:14:54;8.50;;;5.60;;
15616;SDS011;7908;51.688;7.130;2023-02-18T09:17:23;10.10;;;6.40;;
15616;SDS011;7908;51.688;7.130;2023-02-18T09:19:53;11.13;;;8.30;;
15616;SDS011;7908;51.688;7.130;2023-02-18T09:22:24;10.67;;;6.73;;
15616;SDS011;7908;51.688;7.130;2023-02-18T09:24:53;9.37;;;6.87;;
15616;SDS011;7908;51.688;7.130;2023-02-18T09:27:23;11.47;;;7.40;;
15616;SDS011;7908;51.688;7.130;2023-02-18T09:29:54;12.43;;;7.70;;
15616;SDS011;7908;51.688;7.130;2023-02-18T09:32:22;10.93;;;7.53;;
15616;SDS011;7908;51.688;7.130;2023-02-18T09:35:00;14.07;;;8.30;;
15616;SDS011;7908;51.688;7.130;2023-02-18T09:37:32;12.27;;;7.50;;
15616;SDS011;7908;51.688;7.130;2023-02-18T09:40:00;13.73;;;7.87;;
15616;SDS011;7908;51.688;7.130;2023-02-18T09:42:31;11.43;;;7.37;;
15616;SDS011;7908;51.688;7.130;2023-02-18T09:45:03;13.47;;;8.13;;
15616;SDS011;7908;51.688;7.130;2023-02-18T09:47:34;13.47;;;7.77;;
15616;SDS011;7908;51.688;7.130;2023-02-18T09:50:07;11.10;;;7.27;;
15616;SDS011;7908;51.688;7.130;2023-02-18T09:52:43;13.87;;;6.43;;
15616;SDS011;7908;51.688;7.130;2023-02-18T09:55:14;11.57;;;6.37;;
15616;SDS011;7908;51.688;7.130;2023-02-18T09:57:46;15.13;;;7.30;;
15616;SDS011;7908;51.688;7.130;2023-02-18T10:00:19;12.73;;;7.20;;
15616;SDS011;7908;51.688;7.130;2023-02-18T10:02:52;13.10;;;6.83;;
15616;SDS011;7908;51.688;7.130;2023-02-18T10:05:24;15.50;;;6.83;;
15616;SDS011;7908;51.688;7.130;2023-02-18T10:07:57;15.43;;;7.80;;
15616;SDS011;7908;51.688;7.130;2023-02-18T10:10:33;14.57;;;7.97;;
15616;SDS011;7908;51.688;7.130;2023-02-18T10:13:10;19.20;;;8.93;;
15616;SDS011;7908;51.688;7.130;2023-02-18T10:15:41;21.63;;;8.70;;
15616;SDS011;7908;51.688;7.130;2023-02-18T10:18:18;18.40;;;8.93;;
15616;SDS011;7908;51.688;7.130;2023-02-18T10:21:05;21.03;;;9.00;;
15616;SDS011;7908;51.688;7.130;2023-02-18T10:23:39;15.87;;;8.67;;
15616;SDS011;7908;51.688;7.130;2023-02-18T10:26:11;17.17;;;8.80;;
15616;SDS011;7908;51.688;7.130;2023-02-18T10:28:45;19.37;;;9.17;;
15616;SDS011;7908;51.688;7.130;2023-02-18T10:31:16;22.20;;;9.10;;
15616;SDS011;7908;51.688;7.130;2023-02-18T10:33:51;22.40;;;8.80;;
15616;SDS011;7908;51.688;7.130;2023-02-18T10:36:24;20.50;;;9.13;;
15616;SDS011;7908;51.688;7.130;2023-02-18T10:39:02;21.00;;;9.67;;
15616;SDS011;7908;51.688;7.130;2023-02-18T10:41:46;22.50;;;8.87;;
15616;SDS011;7908;51.688;7.130;2023-02-18T10:44:22;19.40;;;8.47;;
15616;SDS011;7908;51.688;7.130;2023-02-18T10:47:09;16.57;;;8.57;;
15616;SDS011;7908;51.688;7.130;2023-02-18T10:49:51;18.87;;;9.23;;
15616;SDS011;7908;51.688;7.130;2023-02-18T10:52:27;21.33;;;9.00;;
15616;SDS011;7908;51.688;7.130;2023-02-18T10:55:03;17.03;;;8.63;;
15616;SDS011;7908;51.688;7.130;2023-02-18T10:57:36;17.17;;;8.13;;
15616;SDS011;7908;51.688;7.130;2023-02-18T11:00:15;13.63;;;7.80;;
15616;SDS011;7908;51.688;7.130;2023-02-18T11:03:00;18.60;;;8.77;;
15616;SDS011;7908;51.688;7.130;2023-02-18T11:05:37;17.20;;;8.13;;
15616;SDS011;7908;51.688;7.130;2023-02-18T11:08:06;15.67;;;7.90;;
15616;SDS011;7908;51.688;7.130;2023-02-18T11:10:39;13.43;;;7.80;;
15616;SDS011;7908;51.688;7.130;2023-02-18T11:13:12;19.20;;;8.23;;
15616;SDS011;7908;51.688;7.130;2023-02-18T11:15:53;13.30;;;8.10;;
15616;SDS011;7908;51.688;7.130;2023-02-18T11:18:29;15.13;;;9.10;;
15616;SDS011;7908;51.688;7.130;2023-02-18T11:21:05;16.97;;;8.47;;
15616;SDS011;7908;51.688;7.130;2023-02-18T11:23:47;12.93;;;8.10;;
15616;SDS011;7908;51.688;7.130;2023-02-18T11:26:20;14.43;;;8.00;;
15616;SDS011;7908;51.688;7.130;2023-02-18T11:28:56;19.27;;;8.33;;
15616;SDS011;7908;51.688;7.130;2023-02-18T11:31:33;12.70;;;7.60;;
15616;SDS011;7908;51.688;7.130;2023-02-18T11:34:13;15.63;;;8.40;;
15616;SDS011;7908;51.688;7.130;2023-02-18T11:36:44;14.60;;;8.07;;
15616;SDS011;7908;51.688;7.130;2023-02-18T11:39:16;15.80;;;8.27;;
15616;SDS011;7908;51.688;7.130;2023-02-18T11:41:52;13.40;;;8.43;;
15616;SDS011;7908;51.688;7.130;2023-02-18T11:44:26;17.67;;;8.33;;
15616;SDS011;7908;51.688;7.130;2023-02-18T11:46:59;11.43;;;7.80;;
15616;SDS011;7908;51.688;7.130;2023-02-18T11:49:29;12.00;;;7.63;;
15616;SDS011;7908;51.688;7.130;2023-02-18T11:52:03;16.03;;;8.57;;
15616;SDS011;7908;51.688;7.130;2023-02-18T11:54:41;13.33;;;9.00;;
15616;SDS011;7908;51.688;7.130;2023-02-18T11:57:26;12.10;;;7.97;;
15616;SDS011;7908;51.688;7.130;2023-02-18T11:59:56;16.73;;;8.57;;
15616;SDS011;7908;51.688;7.130;2023-02-18T12:02:29;9.87;;;7.87;;
15616;SDS011;7908;51.688;7.130;2023-02-18T12:05:02;12.97;;;7.53;;
15616;SDS011;7908;51.688;7.130;2023-02-18T12:07:41;12.57;;;7.40;;
15616;SDS011;7908;51.688;7.130;2023-02-18T12:10:13;10.30;;;7.37;;
15616;SDS011;7908;51.688;7.130;2023-02-18T12:12:49;14.33;;;7.13;;
15616;SDS011;7908;51.688;7.130;2023-02-18T12:15:26;10.03;;;7.20;;
15616;SDS011;7908;51.688;7.130;2023-02-18T12:18:09;11.40;;;7.20;;
15616;SDS011;7908;51.688;7.130;2023-02-18T12:21:01;13.00;;;7.63;;
15616;SDS011;7908;51.688;7.130;2023-02-18T12:23:43;16.13;;;8.00;;
15616;SDS011;7908;51.688;7.130;2023-02-18T12:26:22;9.27;;;7.70;;
15616;SDS011;7908;51.688;7.130;2023-02-18T12:29:00;11.90;;;8.27;;
15616;SDS011;7908;51.688;7.130;2023-02-18T12:31:46;11.43;;;7.43;;
15616;SDS011;7908;51.688;7.130;2023-02-18T12:34:33;14.07;;;7.17;;
15616;SDS011;7908;51.688;7.130;2023-02-18T12:37:13;8.93;;;6.77;;
15616;SDS011;7908;51.688;7.130;2023-02-18T12:40:19;8.77;;;6.80;;
15616;SDS011;7908;51.688;7.130;2023-02-18T12:43:05;9.60;;;7.23;;
15616;SDS011;7908;51.688;7.130;2023-02-18T12:45:53;10.63;;;7.50;;
15616;SDS011;7908;51.688;7.130;2023-02-18T12:51:37;12.47;;;8.27;;
15616;SDS011;7908;51.688;7.130;2023-02-18T12:54:19;10.60;;;8.17;;
15616;SDS011;7908;51.688;7.130;2023-02-18T12:57:03;8.00;;;7.20;;
15616;SDS011;7908;51.688;7.130;2023-02-18T12:59:51;9.70;;;7.93;;
15616;SDS011;7908;51.688;7.130;2023-02-18T13:05:42;8.40;;;7.43;;
15616;SDS011;7908;51.688;7.130;2023-02-18T13:08:21;8.37;;;7.50;;
15616;SDS011;7908;51.688;7.130;2023-02-18T13:11:03;9.37;;;7.70;;
15616;SDS011;7908;51.688;7.130;2023-02-18T13:13:48;8.70;;;7.73;;
15616;SDS011;7908;51.688;7.130;2023-02-18T13:16:23;11.90;;;8.20;;
15616;SDS011;7908;51.688;7.130;2023-02-18T13:18:59;11.10;;;8.63;;
15616;SDS011;7908;51.688;7.130;2023-02-18T13:21:32;12.63;;;10.17;;
15616;SDS011;7908;51.688;7.130;2023-02-18T13:24:05;11.33;;;9.33;;
15616;SDS011;7908;51.688;7.130;2023-02-18T13:26:38;14.67;;;9.70;;
15616;SDS011;7908;51.688;7.130;2023-02-18T13:29:15;14.00;;;11.20;;
15616;SDS011;7908;51.688;7.130;2023-02-18T13:31:57;17.87;;;12.10;;
15616;SDS011;7908;51.688;7.130;2023-02-18T13:34:43;15.77;;;11.73;;
15616;SDS011;7908;51.688;7.130;2023-02-18T13:37:19;14.63;;;12.63;;
15616;SDS011;7908;51.688;7.130;2023-02-18T13:39:54;15.17;;;12.83;;
15616;SDS011;7908;51.688;7.130;2023-02-18T13:42:32;21.80;;;14.53;;
15616;SDS011;7908;51.688;7.130;2023-02-18T13:45:05;18.03;;;14.83;;
15616;SDS011;7908;51.688;7.130;2023-02-18T13:47:49;14.70;;;12.17;;
15616;SDS011;7908;51.688;7.130;2023-02-18T13:50:26;16.97;;;12.33;;
15616;SDS011;7908;51.688;7.130;2023-02-18T13:52:59;15.97;;;14.27;;
15616;SDS011;7908;51.688;7.130;2023-02-18T13:55:54;21.93;;;15.87;;
15616;SDS011;7908;51.688;7.130;2023-02-18T13:58:35;20.33;;;15.90;;
15616;SDS011;7908;51.688;7.130;2023-02-18T14:01:22;19.57;;;16.60;;
15616;SDS011;7908;51.688;7.130;2023-02-18T14:04:02;22.77;;;18.83;;
15616;SDS011;7908;51.688;7.130;2023-02-18T14:09:53;27.13;;;19.73;;
15616;SDS011;7908;51.688;7.130;2023-02-18T14:12:36;28.67;;;20.97;;
15616;SDS011;7908;51.688;7.130;2023-02-18T14:21:35;31.40;;;23.57;;
15616;SDS011;7908;51.688;7.130;2023-02-18T14:24:11;34.07;;;24.83;;
15616;SDS011;7908;51.688;7.130;2023-02-18T14:26:43;35.63;;;25.60;;
15616;SDS011;7908;51.688;7.130;2023-02-18T14:29:19;30.63;;;22.97;;
15616;SDS011;7908;51.688;7.130;2023-02-18T14:31:58;26.07;;;20.60;;
15616;SDS011;7908;51.688;7.130;2023-02-18T14:34:40;34.33;;;24.77;;
15616;SDS011;7908;51.688;7.130;2023-02-18T14:43:37;33.13;;;22.20;;
15616;SDS011;7908;51.688;7.130;2023-02-18T14:46:24;27.70;;;20.67;;
15616;SDS011;7908;51.688;7.130;2023-02-18T14:49:09;31.10;;;21.17;;
15616;SDS011;7908;51.688;7.130;2023-02-18T14:52:01;30.47;;;20.70;;
15616;SDS011;7908;51.688;7.130;2023-02-18T14:54:34;32.57;;;21.33;;
15616;SDS011;7908;51.688;7.130;2023-02-18T14:57:08;26.97;;;19.23;;
15616;SDS011;7908;51.688;7.130;2023-02-18T14:59:42;28.10;;;20.37;;
15616;SDS011;7908;51.688;7.130;2023-02-18T15:02:17;32.67;;;22.00;;
15616;SDS011;7908;51.688;7.130;2023-02-18T15:04:49;27.97;;;18.70;;
15616;SDS011;7908;51.688;7.130;2023-02-18T15:07:20;28.90;;;20.10;;
15616;SDS011;7908;51.688;7.130;2023-02-18T15:09:51;24.57;;;18.70;;
15616;SDS011;7908;51.688;7.130;2023-02-18T15:12:23;28.00;;;21.43;;
15616;SDS011;7908;51.688;7.130;2023-02-18T15:14:59;26.00;;;18.90;;
15616;SDS011;7908;51.688;7.130;2023-02-18T15:17:36;31.47;;;21.07;;
15616;SDS011;7908;51.688;7.130;2023-02-18T15:20:14;27.37;;;20.27;;
15616;SDS011;7908;51.688;7.130;2023-02-18T15:22:47;24.77;;;18.40;;
15616;SDS011;7908;51.688;7.130;2023-02-18T15:25:17;22.93;;;17.93;;
15616;SDS011;7908;51.688;7.130;2023-02-18T15:27:50;21.53;;;18.13;;
15616;SDS011;7908;51.688;7.130;2023-02-18T15:30:24;23.30;;;17.70;;
15616;SDS011;7908;51.688;7.130;2023-02-18T15:32:56;23.50;;;18.27;;
15616;SDS011;7908;51.688;7.130;2023-02-18T15:35:30;21.07;;;17.60;;
15616;SDS011;7908;51.688;7.130;2023-02-18T15:38:00;24.40;;;18.13;;
15616;SDS011;7908;51.688;7.130;2023-02-18T15:40:30;23.93;;;17.73;;
15616;SDS011;7908;51.688;7.130;2023-02-18T15:43:03;26.00;;;19.60;;
15616;SDS011;7908;51.688;7.130;2023-02-18T15:45:34;28.17;;;18.13;;
15616;SDS011;7908;51.688;7.130;2023-02-18T15:48:05;23.97;;;18.43;;
15616;SDS011;7908;51.688;7.130;2023-02-18T15:50:48;27.93;;;19.33;;
15616;SDS011;7908;51.688;7.130;2023-02-18T15:53:28;27.40;;;20.10;;
15616;SDS011;7908;51.688;7.130;2023-02-18T15:56:04;36.17;;;27.40;;